KICL/ICL METAR and TAF weather

Enter ICAO airport designator
Station Type Date Time Source
KICL METAR 2022/10/01 07:55 UTC NOAA

KICL 010755Z AUTO 00000KT 10SM CLR 10/07 A3014 RMK AO2


Station Type Date Time Source
KICL Decoded METAR 2022/10/01 07:55 UTC NOAA

Clarinda, IA, United States (KICL) 40-43N 095-02W
Oct 01, 2022 - 03:55 AM EDT / 2022.10.01 0755 UTC
Wind: Calm:0
Visibility: 10 mile(s):0
Sky conditions: clear
Temperature: 50 F (10 C)
Dew Point: 44 F (7 C)
Relative Humidity: 81%
Pressure (altimeter): 30.14 in. Hg (1020 hPa)
ob: KICL 010755Z AUTO 00000KT 10SM CLR 10/07 A3014 RMK AO2
cycle: 8

Station Type Date Time Source
KICL TAF UTC NOAA

Error!

Example: see airport list